Time;durP1;ratioP1;P1;durP2;ratioP2;P2;SDS_P1;SDS_P2;PMS_P1;PMS_P2;Temp;Humidity;BMP_temperature;BMP_pressure;BME280_temperature;BME280_humidity;BME280_pressure;Samples;Min_cycle;Max_cycle;Signal;HPM_P1;HPM_P2
2022/06/28 00:01:43;;;;;;;3.50;3.40;;;20.30;35.70;;;;;;5084957;28;20460;-53
2022/06/28 00:04:12;;;;;;;3.00;2.90;;;20.30;31.00;;;;;;5088531;28;20990;-53
2022/06/28 00:06:39;;;;;;;3.67;3.37;;;20.30;34.50;;;;;;5091055;28;20502;-53
2022/06/28 00:09:06;;;;;;;4.13;3.83;;;20.30;34.80;;;;;;5095258;28;20440;-53
2022/06/28 00:11:32;;;;;;;2.80;2.60;;;20.20;34.70;;;;;;5088747;28;20468;-53
2022/06/28 00:13:59;;;;;;;4.10;3.70;;;20.20;32.40;;;;;;5087759;28;20514;-52
2022/06/28 00:16:24;;;;;;;3.70;3.40;;;20.30;35.30;;;;;;5088612;28;20598;-52
2022/06/28 00:18:51;;;;;;;3.70;3.50;;;20.20;42.20;;;;;;5077336;28;20954;-53
2022/06/28 00:21:19;;;;;;;4.00;3.70;;;20.20;34.00;;;;;;5080272;28;20204;-52
2022/06/28 00:23:48;;;;;;;3.63;3.33;;;20.20;42.00;;;;;;5092004;28;20852;-52
2022/06/28 00:26:15;;;;;;;3.30;3.10;;;20.20;46.10;;;;;;5087402;22;20594;-50
2022/06/28 00:28:41;;;;;;;5.13;4.10;;;20.20;48.70;;;;;;5084120;28;20948;-52
2022/06/28 00:31:08;;;;;;;4.30;3.90;;;20.20;40.30;;;;;;5091346;28;20460;-52
2022/06/28 00:33:34;;;;;;;3.83;3.63;;;20.10;98.50;;;;;;5085022;28;20929;-53
2022/06/28 00:36:01;;;;;;;4.10;3.90;;;20.00;99.90;;;;;;5090977;28;20883;-51
2022/06/28 00:38:29;;;;;;;3.57;3.37;;;19.80;99.90;;;;;;5092781;28;20467;-53
2022/06/28 00:40:57;;;;;;;5.30;3.73;;;19.70;99.90;;;;;;5090052;28;20965;-54
2022/06/28 00:43:24;;;;;;;4.40;4.10;;;19.60;99.90;;;;;;5088339;28;20484;-53
2022/06/28 00:45:52;;;;;;;4.07;3.87;;;19.50;99.90;;;;;;5082043;28;20475;-53
2022/06/28 00:48:19;;;;;;;5.63;4.20;;;19.50;99.90;;;;;;5088809;28;20850;-54
2022/06/28 00:50:46;;;;;;;4.50;4.20;;;19.40;99.90;;;;;;5093488;28;20464;-53
2022/06/28 00:53:15;;;;;;;4.67;4.37;;;19.30;99.90;;;;;;5082860;28;20461;-51
2022/06/28 00:55:44;;;;;;;4.03;3.77;;;19.30;99.90;;;;;;5084302;28;20497;-53
2022/06/28 00:58:11;;;;;;;5.27;4.87;;;19.30;99.90;;;;;;5083189;28;20479;-51
2022/06/28 01:00:41;;;;;;;5.00;4.50;;;19.20;99.90;;;;;;5082198;28;21020;-52
2022/06/28 01:03:09;;;;;;;5.90;4.70;;;19.20;99.90;;;;;;5079809;28;21004;-51
2022/06/28 01:05:37;;;;;;;4.57;4.27;;;19.20;99.90;;;;;;5085000;28;20480;-53
2022/06/28 01:08:05;;;;;;;4.17;3.87;;;19.20;99.90;;;;;;5090195;28;20460;-52
2022/06/28 01:10:32;;;;;;;4.80;4.50;;;19.20;99.90;;;;;;5089069;28;20456;-50
2022/06/28 01:13:00;;;;;;;7.60;5.67;;;19.10;99.90;;;;;;5086724;28;20502;-52
2022/06/28 01:15:27;;;;;;;6.30;5.90;;;19.10;99.90;;;;;;5075930;28;21022;-51
2022/06/28 01:17:54;;;;;;;5.53;5.20;;;19.10;99.90;;;;;;5085734;28;20452;-50
2022/06/28 01:20:21;;;;;;;6.10;5.60;;;19.10;99.90;;;;;;5086066;28;20485;-51
2022/06/28 01:22:49;;;;;;;5.70;5.30;;;19.10;99.90;;;;;;5082266;28;20476;-51
2022/06/28 01:25:15;;;;;;;5.37;5.00;;;19.10;99.90;;;;;;5081981;28;20514;-53
2022/06/28 01:27:42;;;;;;;6.50;5.90;;;19.10;99.90;;;;;;5089562;28;20518;-52
2022/06/28 01:30:10;;;;;;;5.57;5.17;;;19.10;99.90;;;;;;5084966;28;20517;-52
2022/06/28 01:32:37;;;;;;;6.03;5.63;;;19.10;99.90;;;;;;5090359;28;20864;-52
2022/06/28 01:35:04;;;;;;;7.03;5.33;;;19.10;99.90;;;;;;5089660;28;20505;-51
2022/06/28 01:37:31;;;;;;;6.67;6.20;;;19.10;99.90;;;;;;5089100;28;20860;-52
2022/06/28 01:39:59;;;;;;;6.13;5.77;;;19.10;99.90;;;;;;5084203;28;20459;-52
2022/06/28 01:42:28;;;;;;;7.07;6.40;;;19.10;99.90;;;;;;5079562;28;20542;-52
2022/06/28 01:44:55;;;;;;;6.60;6.00;;;19.10;99.90;;;;;;5087704;28;21022;-51
2022/06/28 01:47:24;;;;;;;7.10;6.60;;;19.00;99.90;;;;;;5082046;28;20460;-51
2022/06/28 01:49:51;;;;;;;6.53;6.03;;;19.00;99.90;;;;;;5084192;28;20877;-52
2022/06/28 01:52:18;;;;;;;5.87;5.43;;;19.00;99.90;;;;;;5082179;28;20464;-51
2022/06/28 01:54:45;;;;;;;5.73;5.33;;;19.00;99.90;;;;;;5085896;28;20475;-51
2022/06/28 01:57:13;;;;;;;6.93;5.53;;;18.90;99.90;;;;;;5084739;28;20509;-53
2022/06/28 01:59:40;;;;;;;6.70;6.20;;;18.90;99.90;;;;;;5089714;28;20488;-53
2022/06/28 02:02:07;;;;;;;5.93;5.60;;;18.90;99.90;;;;;;5084784;28;20457;-53
2022/06/28 02:04:34;;;;;;;6.10;5.70;;;18.80;99.90;;;;;;5082066;28;20476;-53
2022/06/28 02:07:01;;;;;;;5.37;5.00;;;18.80;99.90;;;;;;5081971;28;20850;-52
2022/06/28 02:09:28;;;;;;;5.60;5.20;;;18.80;99.90;;;;;;5086806;28;20492;-53
2022/06/28 02:11:55;;;;;;;6.77;6.27;;;18.80;99.90;;;;;;5086116;28;20460;-53
2022/06/28 02:14:23;;;;;;;5.97;5.57;;;18.70;99.90;;;;;;5084942;28;20457;-54
2022/06/28 02:16:50;;;;;;;5.47;5.07;;;18.80;99.90;;;;;;5084675;28;20468;-54
2022/06/28 02:19:16;;;;;;;5.60;5.20;;;18.80;99.90;;;;;;5085387;28;20514;-52
2022/06/28 02:21:44;;;;;;;5.57;5.27;;;18.80;99.90;;;;;;5082072;28;20954;-53
2022/06/28 02:24:12;;;;;;;6.33;5.83;;;18.80;99.90;;;;;;5082311;28;20484;-53
2022/06/28 02:26:39;;;;;;;6.50;5.90;;;18.70;99.90;;;;;;5084641;28;20988;-54
2022/06/28 02:29:06;;;;;;;6.87;5.37;;;18.70;99.90;;;;;;5084048;28;20456;-53
2022/06/28 02:31:36;;;;;;;5.60;5.20;;;18.70;99.90;;;;;;5081364;28;20460;-52
2022/06/28 02:34:04;;;;;;;4.90;4.60;;;18.70;99.90;;;;;;5082839;28;20456;-53
2022/06/28 02:41:59;;;;;;;5.20;4.90;;;18.70;99.90;;;;;;5081998;28;20661;-53
2022/06/28 02:44:26;;;;;;;6.07;5.57;;;18.70;99.90;;;;;;5090663;28;20476;-53
2022/06/28 02:46:54;;;;;;;5.70;5.23;;;18.70;99.90;;;;;;5077990;28;20966;-53
2022/06/28 02:49:21;;;;;;;7.10;6.60;;;18.70;1.40;;;;;;5084185;28;20551;-53
2022/06/28 02:51:48;;;;;;;6.90;6.40;;;18.70;99.90;;;;;;5083965;28;20461;-53
2022/06/28 02:54:15;;;;;;;8.00;6.13;;;18.70;99.90;;;;;;5085286;28;20456;-53
2022/06/28 02:56:42;;;;;;;6.40;5.90;;;18.70;99.90;;;;;;5091000;28;20533;-53
2022/06/28 02:59:09;;;;;;;6.70;6.20;;;18.70;99.90;;;;;;5086345;28;20482;-51
2022/06/28 03:01:35;;;;;;;5.87;5.47;;;18.60;99.90;;;;;;5085084;28;20968;-53
2022/06/28 03:04:04;;;;;;;7.00;6.40;;;18.60;99.90;;;;;;5080973;28;20573;-52
2022/06/28 03:06:30;;;;;;;6.10;5.67;;;18.60;99.90;;;;;;5081178;28;20571;-52
2022/06/28 03:08:57;;;;;;;8.90;5.33;;;18.50;99.90;;;;;;5082315;28;20456;-52
2022/06/28 03:11:24;;;;;;;7.97;6.13;;;18.50;99.90;;;;;;5088379;28;20869;-52
2022/06/28 03:13:51;;;;;;;6.10;5.70;;;18.50;99.90;;;;;;5080401;28;20509;-52
2022/06/28 03:16:17;;;;;;;5.93;5.47;;;18.50;99.90;;;;;;5089369;28;20902;-52
2022/06/28 03:18:44;;;;;;;6.40;5.90;;;18.50;97.40;;;;;;5083811;28;20464;-52
2022/06/28 03:21:12;;;;;;;6.93;6.33;;;18.50;92.40;;;;;;5084117;28;20526;-51
2022/06/28 03:23:38;;;;;;;5.50;5.10;;;18.50;93.30;;;;;;5083753;28;20472;-51
2022/06/28 03:26:05;;;;;;;6.80;6.30;;;18.50;93.00;;;;;;5087141;28;20491;-52
2022/06/28 03:28:32;;;;;;;5.87;5.47;;;18.50;99.90;;;;;;5093872;28;21006;-53
2022/06/28 03:30:58;;;;;;;8.13;5.07;;;18.50;90.90;;;;;;5090741;28;20463;-51
2022/06/28 03:33:25;;;;;;;5.80;5.40;;;18.40;99.90;;;;;;5095831;28;21034;-52
2022/06/28 03:35:51;;;;;;;7.27;6.73;;;18.50;96.80;;;;;;5093881;28;20507;-53
2022/06/28 03:38:19;;;;;;;5.87;5.40;;;18.50;95.60;;;;;;5090366;28;20862;-51
2022/06/28 03:40:46;;;;;;;5.60;5.20;;;18.50;90.50;;;;;;5094373;28;20868;-54
2022/06/28 03:43:13;;;;;;;6.00;5.53;;;18.60;91.10;;;;;;5080666;28;20465;-51
2022/06/28 03:45:39;;;;;;;7.37;6.20;;;18.60;89.80;;;;;;5091827;28;20483;-52
2022/06/28 03:48:06;;;;;;;8.13;5.77;;;18.60;98.80;;;;;;5091530;28;20456;-52
2022/06/28 03:50:33;;;;;;;7.07;6.37;;;18.50;99.90;;;;;;5093696;28;20878;-53
2022/06/28 03:52:59;;;;;;;6.50;5.90;;;18.50;99.90;;;;;;5092950;28;20463;-52
2022/06/28 03:55:27;;;;;;;5.77;5.30;;;18.50;99.90;;;;;;5091895;28;20475;-52
2022/06/28 03:57:54;;;;;;;5.93;5.53;;;18.50;99.90;;;;;;5086290;28;20460;-52
2022/06/28 04:00:21;;;;;;;4.80;4.50;;;18.50;99.90;;;;;;5094612;28;20468;-55
2022/06/28 04:02:47;;;;;;;5.33;5.00;;;18.40;99.90;;;;;;5091743;28;20491;-51
2022/06/28 04:05:15;;;;;;;5.30;4.90;;;18.40;99.90;;;;;;5083553;28;20515;-52
2022/06/28 04:07:42;;;;;;;9.03;4.13;;;18.40;99.90;;;;;;5091855;28;20455;-53
2022/06/28 04:10:09;;;;;;;4.50;4.20;;;18.40;99.90;;;;;;5086337;28;20509;-53
2022/06/28 04:12:37;;;;;;;5.20;4.70;;;18.40;99.90;;;;;;5087144;28;20456;-53
2022/06/28 04:15:04;;;;;;;2.77;2.57;;;18.40;99.90;;;;;;5091025;28;22262;-54
2022/06/28 04:17:31;;;;;;;2.60;2.40;;;18.30;99.90;;;;;;5095996;28;20467;-53
2022/06/28 04:19:57;;;;;;;2.83;2.63;;;18.20;99.90;;;;;;5090426;28;20452;-53
2022/06/28 04:22:24;;;;;;;2.13;2.03;;;18.20;99.90;;;;;;5092007;28;20487;-53
2022/06/28 04:24:51;;;;;;;2.20;2.10;;;18.20;99.90;;;;;;5086606;28;20969;-54
2022/06/28 04:27:17;;;;;;;2.43;2.23;;;18.20;99.90;;;;;;5094617;28;20456;-53
2022/06/28 04:29:45;;;;;;;3.00;2.20;;;18.20;99.90;;;;;;5094400;28;20464;-52
2022/06/28 04:32:12;;;;;;;5.63;1.97;;;18.10;99.90;;;;;;5094551;28;20463;-53
2022/06/28 04:34:39;;;;;;;7.87;2.37;;;18.10;99.90;;;;;;5086470;28;20957;-52
2022/06/28 04:37:05;;;;;;;2.10;1.90;;;18.10;99.90;;;;;;5096414;28;20541;-53
2022/06/28 04:39:32;;;;;;;2.70;1.80;;;17.90;99.90;;;;;;5093709;28;20432;-53
2022/06/28 04:42:01;;;;;;;1.70;1.60;;;17.80;99.90;;;;;;5082439;28;20451;-51
2022/06/28 04:44:28;;;;;;;1.40;1.30;;;17.80;99.90;;;;;;5085263;28;21008;-50
2022/06/28 04:46:56;;;;;;;1.50;1.50;;;17.80;99.90;;;;;;5083379;28;20461;-50
2022/06/28 04:49:23;;;;;;;1.60;1.50;;;17.70;99.90;;;;;;5089215;28;20456;-50
2022/06/28 04:51:49;;;;;;;2.27;1.53;;;17.60;99.90;;;;;;5095218;28;20448;-52
2022/06/28 04:54:16;;;;;;;1.57;1.50;;;17.60;99.90;;;;;;5090166;28;20490;-53
2022/06/28 04:56:42;;;;;;;2.00;1.90;;;17.60;99.90;;;;;;5086063;28;20472;-53
2022/06/28 04:59:09;;;;;;;1.87;1.77;;;17.50;99.90;;;;;;5079143;28;20456;-53
2022/06/28 05:01:36;;;;;;;2.23;2.03;;;17.50;99.90;;;;;;5077160;28;20535;-53
2022/06/28 05:04:04;;;;;;;1.80;1.70;;;17.40;99.90;;;;;;5093162;28;20484;-54
2022/06/28 05:06:30;;;;;;;3.90;2.00;;;17.50;99.90;;;;;;5092550;28;20483;-53
2022/06/28 05:08:58;;;;;;;3.43;1.80;;;17.50;1.40;;;;;;5085375;28;20949;-53
2022/06/28 05:11:25;;;;;;;1.83;1.73;;;17.50;99.90;;;;;;5076100;28;20473;-53
2022/06/28 05:13:52;;;;;;;2.27;1.80;;;17.40;99.90;;;;;;5079833;28;20461;-51
2022/06/28 05:16:18;;;;;;;2.70;1.90;;;17.40;99.90;;;;;;5087955;28;20476;-54
2022/06/28 05:18:45;;;;;;;1.60;1.60;;;17.50;99.90;;;;;;5085234;28;20875;-53
2022/06/28 05:21:13;;;;;;;1.80;1.70;;;17.50;99.90;;;;;;5086291;28;20472;-54
2022/06/28 05:23:39;;;;;;;3.13;1.73;;;17.40;99.90;;;;;;5076576;28;20955;-54
2022/06/28 05:26:06;;;;;;;1.30;1.30;;;17.40;99.90;;;;;;5088088;28;20520;-54
2022/06/28 05:28:33;;;;;;;1.33;1.23;;;17.50;99.90;;;;;;5086651;28;20485;-52
2022/06/28 05:30:59;;;;;;;2.30;1.70;;;17.40;99.90;;;;;;5079890;28;20507;-54
2022/06/28 05:33:26;;;;;;;1.37;1.37;;;17.40;99.90;;;;;;5080025;28;20464;-53
2022/06/28 05:35:53;;;;;;;1.90;1.80;;;17.40;99.90;;;;;;5085915;28;20483;-53
2022/06/28 05:38:21;;;;;;;2.13;2.03;;;17.40;99.90;;;;;;5088208;28;20465;-54
2022/06/28 05:40:47;;;;;;;1.80;1.70;;;17.40;99.90;;;;;;5086754;28;20883;-53
2022/06/28 05:43:14;;;;;;;1.60;1.50;;;17.40;99.90;;;;;;5083012;28;20537;-54
2022/06/28 05:45:41;;;;;;;1.67;1.60;;;17.40;99.90;;;;;;5086653;28;20516;-51
2022/06/28 05:48:08;;;;;;;1.60;1.50;;;17.40;99.90;;;;;;5088614;28;20453;-50
2022/06/28 05:50:34;;;;;;;1.50;1.40;;;17.40;99.90;;;;;;5084121;28;20452;-51
2022/06/28 05:53:01;;;;;;;1.70;1.60;;;17.40;99.90;;;;;;5088180;28;20533;-50
2022/06/28 05:55:30;;;;;;;3.00;1.10;;;17.40;99.90;;;;;;5087708;28;20989;-51
2022/06/28 05:57:57;;;;;;;1.50;1.40;;;17.50;99.90;;;;;;5080140;28;20975;-50
2022/06/28 06:00:23;;;;;;;2.20;1.50;;;17.50;99.90;;;;;;5086769;28;20514;-50
2022/06/28 06:02:50;;;;;;;1.27;1.27;;;17.40;99.90;;;;;;5087388;28;20479;-51
2022/06/28 06:05:17;;;;;;;1.73;1.40;;;17.50;99.90;;;;;;5085810;28;20489;-51
2022/06/28 06:07:46;;;;;;;1.40;1.30;;;17.50;99.90;;;;;;5086952;28;20456;-51
2022/06/28 06:10:13;;;;;;;2.10;1.40;;;17.50;99.90;;;;;;5087084;28;20464;-50
2022/06/28 06:12:41;;;;;;;2.50;1.40;;;17.50;99.90;;;;;;5082835;28;20455;-51
2022/06/28 06:15:09;;;;;;;1.37;1.37;;;17.60;99.90;;;;;;5088125;28;20476;-51
2022/06/28 06:17:35;;;;;;;1.33;1.23;;;17.60;99.90;;;;;;5078074;28;20962;-52
2022/06/28 06:20:02;;;;;;;1.20;1.20;;;17.60;99.90;;;;;;5081476;28;20460;-50
2022/06/28 06:22:29;;;;;;;1.40;1.37;;;17.70;93.90;;;;;;5090383;28;20464;-52
2022/06/28 06:24:56;;;;;;;1.60;1.50;;;17.70;27.70;;;;;;5097559;22;20506;-50
2022/06/28 06:27:22;;;;;;;2.10;1.47;;;17.90;30.40;;;;;;5070538;28;20484;-50
2022/06/28 06:29:50;;;;;;;1.90;1.80;;;17.90;44.50;;;;;;5064134;28;20971;-50
2022/06/28 06:32:17;;;;;;;1.30;1.30;;;17.90;64.40;;;;;;5060350;28;20469;-50
2022/06/28 06:34:43;;;;;;;1.53;1.10;;;17.90;64.60;;;;;;5061404;28;20478;-51
2022/06/28 06:37:11;;;;;;;1.47;1.40;;;17.90;72.60;;;;;;5047502;28;20531;-49
2022/06/28 06:39:37;;;;;;;0.97;0.97;;;18.00;65.50;;;;;;5049654;28;20494;-49
2022/06/28 06:42:05;;;;;;;1.13;1.03;;;18.00;70.50;;;;;;5049695;28;20473;-49
2022/06/28 06:44:31;;;;;;;2.20;1.00;;;18.00;76.10;;;;;;5045864;28;20483;-49
2022/06/28 06:46:59;;;;;;;1.03;1.03;;;18.10;84.30;;;;;;5050756;28;20461;-50
2022/06/28 06:49:26;;;;;;;2.60;0.97;;;18.10;84.10;;;;;;5047136;28;20548;-49
2022/06/28 06:51:53;;;;;;;2.10;1.20;;;18.20;97.30;;;;;;5047711;28;20500;-50
2022/06/28 06:54:19;;;;;;;1.10;1.00;;;18.30;98.30;;;;;;5054967;28;20461;-50
2022/06/28 06:56:46;;;;;;;1.13;0.90;;;18.40;99.90;;;;;;5058349;28;20851;-50
2022/06/28 06:59:16;;;;;;;2.13;0.90;;;18.30;99.90;;;;;;5050810;28;20454;-50
2022/06/28 07:01:43;;;;;;;0.70;0.70;;;18.30;99.90;;;;;;5050083;28;20469;-50
2022/06/28 07:04:11;;;;;;;0.80;0.80;;;18.30;99.90;;;;;;5050543;28;20450;-49
2022/06/28 07:06:38;;;;;;;1.03;0.80;;;18.30;99.90;;;;;;5050872;28;20904;-49
2022/06/28 07:09:05;;;;;;;1.03;0.80;;;18.30;99.90;;;;;;5046651;28;20470;-49
2022/06/28 07:11:32;;;;;;;0.83;0.83;;;18.30;99.90;;;;;;5038897;28;20458;-50
2022/06/28 07:13:59;;;;;;;1.43;0.70;;;18.30;99.90;;;;;;5045930;28;20549;-50
2022/06/28 07:16:25;;;;;;;0.87;0.87;;;18.30;99.90;;;;;;5048570;28;21108;-49
2022/06/28 07:18:52;;;;;;;2.67;0.70;;;18.40;99.90;;;;;;5051305;28;20717;-50
2022/06/28 07:21:20;;;;;;;1.70;0.90;;;18.30;99.90;;;;;;5043558;28;20535;-50
2022/06/28 07:23:47;;;;;;;2.93;0.73;;;18.40;99.90;;;;;;5054396;28;20458;-50
2022/06/28 07:26:16;;;;;;;0.70;0.70;;;18.40;99.90;;;;;;5048458;28;20516;-49
2022/06/28 07:28:42;;;;;;;1.13;0.70;;;18.50;99.90;;;;;;5047268;28;20975;-49
2022/06/28 07:31:09;;;;;;;1.00;0.90;;;18.60;99.90;;;;;;5043476;28;20466;-50
2022/06/28 07:33:36;;;;;;;0.60;0.60;;;18.80;99.90;;;;;;5052136;28;20512;-49
2022/06/28 07:36:02;;;;;;;0.73;0.73;;;18.90;99.90;;;;;;5066205;28;20461;-49
2022/06/28 07:38:30;;;;;;;0.57;0.57;;;19.00;99.90;;;;;;5048637;28;20492;-50
2022/06/28 07:40:57;;;;;;;0.70;0.70;;;19.10;99.90;;;;;;5053517;28;20454;-50
2022/06/28 07:43:24;;;;;;;3.43;0.80;;;19.20;99.90;;;;;;5045723;28;20458;-49
2022/06/28 07:45:51;;;;;;;1.23;0.50;;;19.10;99.90;;;;;;5049134;28;20481;-50
2022/06/28 07:48:19;;;;;;;0.70;0.70;;;19.20;99.90;;;;;;5053178;28;20465;-50
2022/06/28 07:53:33;;;;;;;0.60;0.60;;;19.30;99.90;;;;;;5049382;28;20457;-49
2022/06/28 07:56:00;;;;;;;4.77;0.53;;;19.40;99.90;;;;;;5047675;28;20555;-50
2022/06/28 07:58:26;;;;;;;0.60;0.50;;;19.40;99.90;;;;;;5047175;28;20462;-50
2022/06/28 08:00:53;;;;;;;0.60;0.53;;;19.50;99.90;;;;;;5048525;28;20461;-49
2022/06/28 08:03:20;;;;;;;0.90;0.50;;;19.60;99.90;;;;;;5049440;28;20488;-50
2022/06/28 08:05:47;;;;;;;0.60;0.60;;;19.70;99.90;;;;;;5043423;28;20481;-50
2022/06/28 08:08:13;;;;;;;0.97;0.60;;;19.70;99.90;;;;;;5049718;28;20458;-50
2022/06/28 08:10:42;;;;;;;0.80;0.40;;;19.70;99.90;;;;;;5048371;28;20955;-49
2022/06/28 08:13:08;;;;;;;0.53;0.43;;;19.70;99.90;;;;;;5044959;28;21960;-51
2022/06/28 08:15:35;;;;;;;2.80;0.83;;;19.80;99.90;;;;;;5057086;28;20816;-49
2022/06/28 08:18:02;;;;;;;3.53;0.40;;;19.80;99.90;;;;;;5049269;28;20574;-50
2022/06/28 08:20:31;;;;;;;0.50;0.40;;;19.90;99.90;;;;;;5046453;28;21044;-50
2022/06/28 08:22:57;;;;;;;3.03;0.60;;;20.00;99.90;;;;;;5060930;28;20543;-50
2022/06/28 08:25:24;;;;;;;0.60;0.50;;;20.10;99.90;;;;;;5052101;28;20551;-50
2022/06/28 08:27:52;;;;;;;4.00;0.50;;;20.10;99.90;;;;;;5054661;28;20519;-50
2022/06/28 08:30:19;;;;;;;0.67;0.50;;;20.10;99.90;;;;;;5052657;28;21072;-50
2022/06/28 08:32:45;;;;;;;0.60;0.43;;;20.00;99.90;;;;;;5051622;28;20511;-49
2022/06/28 08:35:13;;;;;;;1.33;0.43;;;20.10;99.90;;;;;;5051728;28;20539;-52
2022/06/28 08:37:39;;;;;;;0.50;0.33;;;20.20;28.50;;;;;;5049818;28;20465;-53
2022/06/28 08:40:07;;;;;;;0.50;0.30;;;20.30;24.00;;;;;;5050288;28;20450;-53
2022/06/28 08:42:38;;;;;;;0.60;0.40;;;20.40;28.30;;;;;;5051097;28;20886;-53
2022/06/28 08:45:08;;;;;;;4.20;0.50;;;20.40;51.70;;;;;;5047136;28;20486;-53
2022/06/28 08:47:38;;;;;;;1.47;0.70;;;20.30;46.80;;;;;;5049440;28;20462;-52
2022/06/28 08:50:09;;;;;;;0.50;0.40;;;20.40;36.50;;;;;;5050466;28;20487;-52
2022/06/28 08:52:36;;;;;;;1.10;0.60;;;20.50;37.00;;;;;;5049814;28;20516;-53
2022/06/28 08:55:06;;;;;;;1.37;0.80;;;20.60;42.50;;;;;;5051544;28;20532;-52
2022/06/28 08:57:35;;;;;;;3.33;0.50;;;20.70;32.90;;;;;;5057664;28;20870;-53
2022/06/28 09:00:04;;;;;;;1.43;0.60;;;20.70;55.20;;;;;;5051228;28;20481;-53
2022/06/28 09:02:32;;;;;;;4.00;0.43;;;20.70;62.20;;;;;;5044744;28;20462;-54
2022/06/28 09:05:01;;;;;;;1.47;0.40;;;20.80;46.40;;;;;;5044742;28;20571;-52
2022/06/28 09:07:28;;;;;;;0.50;0.30;;;20.70;56.30;;;;;;5061572;28;20936;-53
2022/06/28 09:09:54;;;;;;;2.50;0.60;;;20.70;47.30;;;;;;5064073;28;20457;-53
2022/06/28 09:12:21;;;;;;;0.50;0.20;;;20.70;55.50;;;;;;5058538;28;21211;-54
2022/06/28 09:14:48;;;;;;;0.73;0.50;;;20.80;56.20;;;;;;5063016;28;20482;-53
2022/06/28 09:17:21;;;;;;;1.00;0.40;;;20.90;55.90;;;;;;5050920;28;20465;-53
2022/06/28 09:19:52;;;;;;;1.67;0.40;;;21.20;46.10;;;;;;5050406;28;20462;-52
2022/06/28 09:22:31;;;;;;;1.27;0.60;;;21.50;70.60;;;;;;5051127;28;20535;-53
2022/06/28 09:24:57;;;;;;;1.00;0.47;;;21.70;81.80;;;;;;5049695;28;20481;-53
2022/06/28 09:27:29;;;;;;;2.17;0.77;;;21.80;86.10;;;;;;5051565;28;20512;-53
2022/06/28 09:29:56;;;;;;;1.13;0.60;;;21.80;80.80;;;;;;5052739;28;20454;-52
2022/06/28 09:32:27;;;;;;;0.50;0.40;;;21.80;84.20;;;;;;5058160;28;20621;-53
2022/06/28 09:34:57;;;;;;;1.87;0.50;;;21.80;81.60;;;;;;5050279;28;20477;-54
2022/06/28 09:37:36;;;;;;;0.50;0.33;;;21.90;78.70;;;;;;5051615;28;20531;-52
2022/06/28 09:40:18;;;;;;;0.50;0.30;;;21.80;90.80;;;;;;5049521;28;20959;-53
2022/06/28 09:42:46;;;;;;;5.50;0.40;;;21.80;94.20;;;;;;5045927;28;20462;-53
2022/06/28 09:45:15;;;;;;;0.60;0.50;;;21.50;99.60;;;;;;5039183;28;20963;-53
2022/06/28 09:47:47;;;;;;;3.30;0.70;;;21.50;85.50;;;;;;5051253;28;20454;-53
2022/06/28 09:50:23;;;;;;;2.87;0.60;;;21.40;86.80;;;;;;5054664;28;20464;-53
2022/06/28 09:52:50;;;;;;;0.50;0.37;;;21.40;85.30;;;;;;5049525;28;20965;-53
2022/06/28 09:55:18;;;;;;;0.50;0.40;;;21.40;83.70;;;;;;5051483;28;21010;-53
2022/06/28 09:57:47;;;;;;;0.50;0.30;;;21.50;84.10;;;;;;5049887;28;20466;-53
2022/06/28 10:00:16;;;;;;;2.20;0.43;;;21.50;99.90;;;;;;5054223;28;20458;-53
2022/06/28 10:02:44;;;;;;;0.60;0.50;;;21.60;99.90;;;;;;5050283;28;20464;-53
2022/06/28 10:05:11;;;;;;;0.70;0.50;;;21.60;97.00;;;;;;5044606;28;20462;-54
2022/06/28 10:07:39;;;;;;;0.93;0.47;;;21.60;99.10;;;;;;5051370;28;20903;-53
2022/06/28 10:10:09;;;;;;;0.63;0.40;;;21.80;97.20;;;;;;5054196;28;20441;-53
2022/06/28 10:15:23;;;;;;;0.50;0.47;;;22.00;99.90;;;;;;5045788;28;20499;-53
2022/06/28 10:17:56;;;;;;;1.20;0.40;;;21.90;99.90;;;;;;5052856;28;20458;-53
2022/06/28 10:20:26;;;;;;;2.40;0.40;;;21.80;99.90;;;;;;5055807;28;20458;-53
2022/06/28 10:23:21;;;;;;;1.00;0.50;;;21.90;99.90;;;;;;5053834;28;20613;-52
2022/06/28 10:26:06;;;;;;;3.37;0.40;;;22.00;99.90;;;;;;5044211;28;20489;-53
2022/06/28 10:28:37;;;;;;;0.53;0.47;;;22.10;99.90;;;;;;5050082;28;20484;-53
2022/06/28 10:31:32;;;;;;;5.80;0.77;;;22.40;99.90;;;;;;5059236;28;20978;-53
2022/06/28 10:34:00;;;;;;;0.90;0.70;;;22.70;99.90;;;;;;5049493;28;20878;-53
2022/06/28 10:36:31;;;;;;;0.80;0.50;;;22.90;99.90;;;;;;5048669;28;20514;-53
2022/06/28 10:39:14;;;;;;;3.13;0.40;;;22.90;99.90;;;;;;5045305;28;20480;-53
2022/06/28 10:41:43;;;;;;;0.60;0.40;;;22.80;99.90;;;;;;5043025;28;20931;-52
2022/06/28 10:44:12;;;;;;;1.03;0.33;;;22.80;99.90;;;;;;5039263;28;21028;-53
2022/06/28 10:46:39;;;;;;;0.60;0.60;;;22.60;99.90;;;;;;5038010;28;20655;-53
2022/06/28 10:49:08;;;;;;;0.50;0.43;;;22.50;99.90;;;;;;5053989;28;20460;-52
2022/06/28 10:51:38;;;;;;;1.10;0.50;;;22.70;99.90;;;;;;5050351;28;20519;-52
2022/06/28 10:54:08;;;;;;;1.43;0.43;;;22.90;99.90;;;;;;5046112;28;20458;-52
2022/06/28 10:56:41;;;;;;;0.50;0.30;;;23.00;99.90;;;;;;5041125;28;21089;-53
2022/06/28 10:59:10;;;;;;;0.67;0.40;;;23.00;99.90;;;;;;5052497;28;20453;-53
2022/06/28 11:01:56;;;;;;;0.50;0.40;;;22.80;99.90;;;;;;5051907;28;20500;-55
2022/06/28 11:04:26;;;;;;;1.17;0.50;;;22.70;99.90;;;;;;5051405;28;20535;-52
2022/06/28 11:06:54;;;;;;;0.60;0.60;;;22.60;99.90;;;;;;5055172;28;20513;-53
2022/06/28 11:09:28;;;;;;;0.93;0.43;;;22.60;99.90;;;;;;5048286;28;20468;-55
2022/06/28 11:12:12;;;;;;;0.50;0.40;;;22.80;99.90;;;;;;5047731;28;20461;-53
2022/06/28 11:14:54;;;;;;;5.23;1.33;;;23.00;99.90;;;;;;5045963;28;20466;-52
2022/06/28 11:17:23;;;;;;;7.77;0.50;;;23.10;99.90;;;;;;5049550;28;20576;-53
2022/06/28 11:19:54;;;;;;;2.50;0.73;;;23.00;99.90;;;;;;5059837;28;21168;-53
2022/06/28 11:22:22;;;;;;;0.60;0.60;;;22.90;99.90;;;;;;5064306;28;20984;-52
2022/06/28 11:24:49;;;;;;;0.50;0.40;;;22.90;99.90;;;;;;5050220;28;20551;-53
2022/06/28 11:27:24;;;;;;;5.90;0.60;;;23.00;99.90;;;;;;5049877;28;20551;-52
2022/06/28 11:29:53;;;;;;;0.60;0.60;;;22.90;99.90;;;;;;5056858;28;20466;-52
2022/06/28 11:32:22;;;;;;;0.50;0.50;;;22.80;99.90;;;;;;5050934;28;20470;-53
2022/06/28 11:34:57;;;;;;;6.47;0.40;;;22.70;99.90;;;;;;5050344;28;20532;-52
2022/06/28 11:37:23;;;;;;;0.63;0.63;;;22.70;99.90;;;;;;5056370;28;20452;-53
2022/06/28 11:39:54;;;;;;;2.33;0.63;;;22.70;99.90;;;;;;5051784;28;20507;-53
2022/06/28 11:42:22;;;;;;;0.97;0.40;;;22.90;99.90;;;;;;5050220;28;20449;-52
2022/06/28 11:44:51;;;;;;;0.70;0.67;;;23.20;99.90;;;;;;5045150;28;20547;-53
2022/06/28 11:47:19;;;;;;;3.37;0.90;;;23.20;99.90;;;;;;5052711;28;20555;-53
2022/06/28 11:49:50;;;;;;;1.00;0.53;;;23.20;99.90;;;;;;5053985;28;21005;-52
2022/06/28 11:52:17;;;;;;;1.37;0.60;;;23.20;99.90;;;;;;5054357;28;20450;-53
2022/06/28 11:54:45;;;;;;;4.60;1.20;;;23.30;99.90;;;;;;5047242;28;20481;-52
2022/06/28 11:57:16;;;;;;;4.60;0.63;;;23.50;99.90;;;;;;5053764;28;20462;-54
2022/06/28 12:00:09;;;;;;;3.90;0.90;;;23.50;99.90;;;;;;5055890;28;20458;-53
2022/06/28 12:02:51;;;;;;;0.70;0.67;;;23.40;99.90;;;;;;5057141;28;20461;-53
2022/06/28 12:05:30;;;;;;;2.00;0.70;;;23.30;99.90;;;;;;5052731;28;20493;-53
2022/06/28 12:07:56;;;;;;;0.70;0.70;;;23.20;99.90;;;;;;5054507;28;20505;-52
2022/06/28 12:10:25;;;;;;;7.23;0.70;;;23.20;99.90;;;;;;5049675;28;20453;-54
2022/06/28 12:12:52;;;;;;;0.60;0.60;;;23.20;99.90;;;;;;5043661;28;20462;-53
2022/06/28 12:15:31;;;;;;;0.60;0.60;;;23.10;99.90;;;;;;5055469;28;20488;-54
2022/06/28 12:18:01;;;;;;;1.27;0.80;;;23.10;99.90;;;;;;5053674;28;20449;-54
2022/06/28 12:20:30;;;;;;;2.97;0.70;;;23.10;99.90;;;;;;5052421;28;20457;-54
2022/06/28 12:22:58;;;;;;;2.83;1.23;;;23.30;99.90;;;;;;5058029;28;20491;-54
2022/06/28 12:25:25;;;;;;;1.10;0.83;;;23.30;99.90;;;;;;5077631;22;21432;-51
2022/06/28 12:27:51;;;;;;;3.60;2.30;;;23.50;99.90;;;;;;5072376;28;20484;-53
2022/06/28 12:30:18;;;;;;;3.20;0.80;;;23.50;99.90;;;;;;5069352;28;20461;-53
2022/06/28 12:32:46;;;;;;;0.70;0.57;;;23.30;99.90;;;;;;5065941;28;20460;-52
2022/06/28 12:35:14;;;;;;;0.73;0.73;;;23.30;99.90;;;;;;5073442;28;20487;-52
2022/06/28 12:37:40;;;;;;;1.53;0.80;;;23.40;99.90;;;;;;5075003;28;20480;-52
2022/06/28 12:40:09;;;;;;;5.20;0.70;;;23.40;99.90;;;;;;5068210;28;21038;-52
2022/06/28 12:42:37;;;;;;;0.67;0.67;;;23.50;99.90;;;;;;5085187;28;20451;-52
2022/06/28 12:45:05;;;;;;;3.13;0.90;;;23.70;99.90;;;;;;5086482;28;20456;-52
2022/06/28 12:47:34;;;;;;;3.00;0.83;;;24.00;99.90;;;;;;5070440;28;20486;-52
2022/06/28 12:50:05;;;;;;;1.30;0.90;;;24.20;99.90;;;;;;5067777;28;20465;-52
2022/06/28 12:52:32;;;;;;;2.53;1.30;;;24.00;99.90;;;;;;5070083;28;20472;-52
2022/06/28 12:54:58;;;;;;;5.70;1.03;;;23.90;99.90;;;;;;5070821;28;20457;-51
2022/06/28 12:57:25;;;;;;;5.70;3.93;;;23.70;99.90;;;;;;5078116;28;20523;-51
2022/06/28 12:59:52;;;;;;;3.30;2.20;;;23.60;99.90;;;;;;5076156;28;20456;-51
2022/06/28 13:02:19;;;;;;;4.10;2.57;;;23.50;1.40;;;;;;5079732;28;20456;-52
2022/06/28 13:04:47;;;;;;;2.90;1.77;;;23.50;99.90;;;;;;5081699;28;21025;-51